METAR Data
IDs: Format: Raw Decoded Include TAF

Data at: 1300 UTC 23 Sep 2018

KMPZ 231255Z AUTO 00000KT 10SM CLR 11/11 A3015 RMK AO2
KMPZ 231235Z AUTO 00000KT 10SM CLR 09/09 A3015 RMK AO2
KMPZ 231215Z AUTO 13003KT 10SM CLR 08/08 A3014 RMK AO2
KMPZ 231155Z AUTO 12003KT 10SM CLR 08/08 A3014 RMK AO2
KMPZ 231135Z AUTO 12003KT 10SM CLR 08/08 A3014 RMK AO2
KMPZ 231115Z AUTO 12003KT 10SM CLR 08/08 A3013 RMK AO2
KMPZ 231055Z AUTO 12003KT 10SM CLR 08/08 A3013 RMK AO2
KMPZ 231035Z AUTO 00000KT 10SM CLR 08/08 A3013 RMK AO2
KMPZ 231015Z AUTO 13003KT 10SM CLR 08/08 A3013 RMK AO2
KMPZ 230955Z AUTO 00000KT 10SM CLR 08/08 A3013 RMK AO2
KMPZ 230935Z AUTO 12003KT 10SM CLR 08/08 A3012 RMK AO2
KMPZ 230915Z AUTO 12003KT 10SM CLR 09/09 A3012 RMK AO2
KMPZ 230855Z AUTO 12004KT 10SM CLR 09/09 A3013 RMK AO2
KMPZ 230835Z AUTO 11003KT 10SM CLR 09/09 A3013 RMK AO2
KMPZ 230815Z AUTO 10003KT 10SM CLR 10/10 A3013 RMK AO2
KMPZ 230755Z AUTO 00000KT 10SM CLR 10/10 A3013 RMK AO2
KMPZ 230735Z AUTO 00000KT 10SM CLR 10/10 A3013 RMK AO2
KMPZ 230715Z AUTO 00000KT 10SM CLR 10/10 A3013 RMK AO2
KMPZ 230655Z AUTO 00000KT 10SM CLR 11/11 A3013 RMK AO2
KMPZ 230635Z AUTO 14003KT 10SM CLR 10/10 A3013 RMK AO2
KMPZ 230615Z AUTO 14004KT 10SM CLR 10/10 A3013 RMK AO2
KMPZ 230555Z AUTO 13004KT 10SM CLR 11/10 A3014 RMK AO2
KMPZ 230535Z AUTO 13003KT 10SM CLR 11/10 A3014 RMK AO2
KMPZ 230515Z AUTO 12003KT 10SM CLR 11/10 A3015 RMK AO2
KMPZ 230455Z AUTO 13004KT 10SM CLR 11/10 A3015 RMK AO2
KMPZ 230435Z AUTO 12004KT 10SM CLR 12/10 A3015 RMK AO2
KMPZ 230415Z AUTO 12004KT 10SM CLR 12/10 A3015 RMK AO2
KMPZ 230355Z AUTO 11003KT 10SM CLR 12/10 A3015 RMK AO2
KMPZ 230335Z AUTO 11003KT 10SM CLR 12/10 A3015 RMK AO2
KMPZ 230315Z AUTO 12004KT 10SM CLR 12/11 A3016 RMK AO2
KMPZ 230255Z AUTO 12004KT 10SM CLR 13/11 A3016 RMK AO2
KMPZ 230235Z AUTO 14004KT 10SM CLR 13/11 A3016 RMK AO2
KMPZ 230215Z AUTO 13003KT 10SM CLR 13/11 A3016 RMK AO2
KMPZ 230155Z AUTO 13004KT 5SM HZ CLR 13/11 A3016 RMK AO2
KMPZ 230135Z AUTO 12003KT 5SM HZ CLR 14/11 A3015 RMK AO2
KMPZ 230115Z AUTO 00000KT 7SM CLR 15/11 A3015 RMK AO2
KMPZ 230055Z AUTO 00000KT 10SM CLR 16/11 A3015 RMK AO2
KMPZ 230035Z AUTO 00000KT 10SM CLR 17/11 A3015 RMK AO2
KMPZ 230015Z AUTO 00000KT 10SM CLR 17/10 A3015 RMK AO2
KMPZ 222355Z AUTO 00000KT 10SM CLR 19/10 A3015 RMK AO2
KMPZ 222335Z AUTO 12003KT 10SM CLR 20/10 A3015 RMK AO2
KMPZ 222315Z AUTO 11003KT 10SM CLR 21/09 A3015 RMK AO2
KMPZ 222255Z AUTO 00000KT 10SM CLR 22/10 A3016 RMK AO2
KMPZ 222235Z AUTO 11006KT 10SM CLR 22/10 A3016 RMK AO2
KMPZ 222215Z AUTO 15003KT 10SM CLR 22/09 A3016 RMK AO2
KMPZ 222155Z AUTO 12006KT 10SM CLR 22/10 A3016 RMK AO2
KMPZ 222135Z AUTO 12006KT 10SM CLR 22/10 A3017 RMK AO2
KMPZ 222115Z AUTO 15003KT 10SM CLR 22/10 A3017 RMK AO2
KMPZ 222055Z AUTO 11005KT 10SM CLR 22/10 A3018 RMK AO2
KMPZ 222035Z AUTO 11005KT 10SM CLR 22/10 A3018 RMK AO2
KMPZ 222015Z AUTO 19004KT 10SM CLR 22/10 A3019 RMK AO2
KMPZ 221955Z AUTO 15005KT 10SM CLR 22/10 A3020 RMK AO2
KMPZ 221935Z AUTO 00000KT 10SM CLR 22/10 A3021 RMK AO2
KMPZ 221915Z AUTO 13004KT 10SM CLR 22/10 A3022 RMK AO2
KMPZ 221855Z AUTO 13003KT 10SM CLR 21/10 A3023 RMK AO2
KMPZ 221835Z AUTO 11005KT 10SM CLR 21/10 A3024 RMK AO2
KMPZ 221815Z AUTO 00000KT 10SM CLR 20/10 A3025 RMK AO2
KMPZ 221755Z AUTO 18005KT 10SM CLR 20/10 A3026 RMK AO2
KMPZ 221735Z AUTO 16007KT 10SM CLR 20/10 A3027 RMK AO2
KMPZ 221715Z AUTO 15006KT 10SM SCT032 19/10 A3028 RMK AO2
KMPZ 221655Z AUTO 15007KT 130V190 10SM SCT032 19/10 A3028 RMK AO2
KMPZ 221635Z AUTO 14005KT 10SM CLR 18/10 A3030 RMK AO2
KMPZ 221615Z AUTO 12005KT 10SM CLR 17/10 A3030 RMK AO2
KMPZ 221555Z AUTO 16005KT 10SM CLR 17/09 A3032 RMK AO2
KMPZ 221535Z AUTO 12005KT 10SM CLR 17/09 A3032 RMK AO2
KMPZ 221515Z AUTO 08007KT 10SM CLR 16/08 A3033 RMK AO2
KMPZ 221455Z AUTO 10006KT 10SM CLR 15/08 A3033 RMK AO2
KMPZ 221435Z AUTO 08005KT 10SM CLR 14/09 A3033 RMK AO2
KMPZ 221415Z AUTO 08007KT 10SM CLR 13/09 A3033 RMK AO2
KMPZ 221355Z AUTO 07006KT 10SM CLR 12/09 A3032 RMK AO2
KMPZ 221335Z AUTO 07007KT 10SM CLR 11/10 A3032 RMK AO2
KMPZ 221315Z AUTO 07004KT 10SM CLR 10/10 A3032 RMK AO2
KMPZ 221255Z AUTO 05003KT 10SM CLR 09/09 A3033 RMK AO2
KMPZ 221235Z AUTO 04003KT 10SM CLR 08/08 A3032 RMK AO2
KMPZ 221215Z AUTO 04003KT 10SM CLR 07/07 A3032 RMK AO2
KMPZ 221155Z AUTO 03004KT 10SM CLR 07/07 A3032 RMK AO2
KMPZ 221135Z AUTO 03003KT 10SM CLR 07/07 A3032 RMK AO2
KMPZ 221115Z AUTO 03004KT 10SM CLR 07/07 A3032 RMK AO2
KMPZ 221055Z AUTO 03005KT 10SM CLR 07/07 A3032 RMK AO2
KMPZ 221035Z AUTO 02005KT 10SM CLR 07/07 A3032 RMK AO2
KMPZ 221015Z AUTO 02005KT 10SM CLR 07/07 A3032 RMK AO2
KMPZ 220955Z AUTO 04003KT 10SM CLR 07/07 A3032 RMK AO2
KMPZ 220935Z AUTO 03003KT 10SM CLR 08/08 A3031 RMK AO2
KMPZ 220915Z AUTO 03004KT 10SM CLR 08/08 A3031 RMK AO2
KMPZ 220855Z AUTO 02005KT 10SM CLR 09/09 A3031 RMK AO2
KMPZ 220835Z AUTO 01006KT 10SM CLR 09/09 A3031 RMK AO2
KMPZ 220815Z AUTO 01006KT 10SM CLR 10/08 A3031 RMK AO2
KMPZ 220755Z AUTO 01005KT 10SM CLR 10/08 A3031 RMK AO2
KMPZ 220735Z AUTO 36006KT 10SM CLR 10/08 A3031 RMK AO2
KMPZ 220715Z AUTO 35006KT 10SM CLR 10/09 A3030 RMK AO2
KMPZ 220655Z AUTO 35006KT 10SM CLR 10/08 A3031 RMK AO2
KMPZ 220635Z AUTO 35005KT 10SM CLR 10/08 A3030 RMK AO2
KMPZ 220615Z AUTO 34005KT 10SM CLR 11/08 A3030 RMK AO2
KMPZ 220555Z AUTO 35006KT 10SM CLR 10/08 A3030 RMK AO2
KMPZ 220535Z AUTO 35005KT 10SM CLR 11/08 A3031 RMK AO2
KMPZ 220515Z AUTO 35005KT 10SM CLR 11/08 A3031 RMK AO2
KMPZ 220455Z AUTO 36005KT 10SM CLR 11/08 A3032 RMK AO2
KMPZ 220435Z AUTO 36005KT 10SM CLR 12/08 A3032 RMK AO2
KMPZ 220415Z AUTO 36006KT 10SM CLR 12/08 A3031 RMK AO2
KMPZ 220355Z AUTO 36005KT 10SM CLR 12/08 A3031 RMK AO2
KMPZ 220335Z AUTO 01006KT 10SM CLR 12/08 A3031 RMK AO2
KMPZ 220315Z AUTO 36006KT 10SM CLR 12/08 A3031 RMK AO2
KMPZ 220255Z AUTO 01009KT 10SM CLR 12/08 A3030 RMK AO2
KMPZ 220235Z AUTO 01007KT 10SM CLR 13/08 A3030 RMK AO2
KMPZ 220215Z AUTO 36007KT 10SM CLR 13/08 A3029 RMK AO2
KMPZ 220155Z AUTO 01009KT 10SM CLR 13/08 A3028 RMK AO2
KMPZ 220135Z AUTO 36013G18KT 10SM CLR 14/08 A3027 RMK AO2
KMPZ 220115Z AUTO 36012G19KT 10SM CLR 15/09 A3025 RMK AO2